Time;durP1;ratioP1;P1;durP2;ratioP2;P2;SDS_P1;SDS_P2;PMS_P1;PMS_P2;Temp;Humidity;BMP_temperature;BMP_pressure;BME280_temperature;BME280_humidity;BME280_pressure;Samples;Min_cycle;Max_cycle;Signal;HPM_P1;HPM_P2
2023/02/10 00:00:45;;;;;;;15.00;8.00;;;;;;;-6.40;100.00;102493.25;5043624;28;20838;-71
2023/02/10 00:03:12;;;;;;;12.87;7.43;;;;;;;-6.31;100.00;102497.34;5042830;28;20454;-72
2023/02/10 00:05:39;;;;;;;16.63;7.90;;;;;;;-6.33;100.00;102490.38;5028285;28;20474;-71
2023/02/10 00:08:06;;;;;;;13.77;7.80;;;;;;;-6.25;100.00;102488.41;5043778;28;20484;-72
2023/02/10 00:10:33;;;;;;;14.63;8.10;;;;;;;-6.25;100.00;102485.88;5041694;28;20469;-72
2023/02/10 00:12:59;;;;;;;14.50;7.90;;;;;;;-6.25;100.00;102476.59;5041248;28;20447;-73
2023/02/10 00:15:25;;;;;;;18.13;7.43;;;;;;;-6.21;100.00;102485.31;5032825;28;20497;-72
2023/02/10 00:17:52;;;;;;;15.03;8.03;;;;;;;-6.16;100.00;102484.00;5040594;28;20441;-71
2023/02/10 00:20:19;;;;;;;14.50;7.90;;;;;;;-6.13;100.00;102476.59;5027389;28;20533;-72
2023/02/10 00:22:45;;;;;;;14.73;7.57;;;;;;;-6.14;100.00;102475.72;5045538;28;20538;-72
2023/02/10 00:25:13;;;;;;;13.07;7.53;;;;;;;-6.13;100.00;102477.47;5051198;28;20489;-72
2023/02/10 00:27:39;;;;;;;15.00;7.33;;;;;;;-6.08;100.00;102470.19;5047577;28;20866;-73
2023/02/10 00:30:06;;;;;;;13.83;8.03;;;;;;;-6.05;100.00;102475.50;5028206;28;20465;-72
2023/02/10 00:32:32;;;;;;;17.83;8.40;;;;;;;-6.07;100.00;102479.56;5048767;28;20449;-71
2023/02/10 00:34:59;;;;;;;15.23;8.40;;;;;;;-6.06;100.00;102477.91;5067389;22;20508;-76
2023/02/10 00:37:25;;;;;;;16.40;8.23;;;;;;;-6.00;100.00;102481.75;5050651;28;20459;-76
2023/02/10 00:39:52;;;;;;;15.37;8.90;;;;;;;-5.88;100.00;102480.84;5049747;28;20457;-77
2023/02/10 00:42:20;;;;;;;14.10;7.50;;;;;;;-5.82;100.00;102487.25;5049355;28;20453;-76
2023/02/10 00:44:47;;;;;;;15.30;8.27;;;;;;;-5.71;100.00;102498.16;5051866;28;20618;-76
2023/02/10 00:47:13;;;;;;;13.87;7.77;;;;;;;-5.53;100.00;102501.97;5036940;28;20549;-76
2023/02/10 00:49:39;;;;;;;13.40;8.57;;;;;;;-5.38;100.00;102503.78;5032525;28;20962;-76
2023/02/10 00:52:06;;;;;;;17.60;8.60;;;;;;;-5.25;100.00;102505.53;5030335;28;20477;-76
2023/02/10 00:54:32;;;;;;;12.97;7.50;;;;;;;-5.21;100.00;102510.91;5033931;28;20834;-77
2023/02/10 00:56:59;;;;;;;19.00;8.70;;;;;;;-5.04;100.00;102508.66;5027475;28;20806;-77
2023/02/10 00:59:26;;;;;;;22.23;9.10;;;;;;;-4.92;100.00;102506.03;5031580;28;20477;-75
2023/02/10 01:01:53;;;;;;;15.50;8.87;;;;;;;-4.86;100.00;102512.41;5030956;28;20568;-76
2023/02/10 01:04:19;;;;;;;16.80;8.60;;;;;;;-4.67;100.00;102509.44;5029124;28;20843;-76
2023/02/10 01:06:46;;;;;;;14.80;8.37;;;;;;;-4.58;100.00;102514.25;5028875;28;21124;-76
2023/02/10 01:09:12;;;;;;;15.03;9.77;;;;;;;-4.46;100.00;102522.69;5032910;28;20465;-77
2023/02/10 01:11:39;;;;;;;17.37;8.50;;;;;;;-4.35;100.00;102513.19;5026777;28;20537;-76
2023/02/10 01:14:05;;;;;;;20.70;9.87;;;;;;;-4.24;100.00;102513.88;5031334;28;20461;-76
2023/02/10 01:16:33;;;;;;;21.33;9.13;;;;;;;-4.09;100.00;102517.44;5033773;28;20471;-77
2023/02/10 01:19:00;;;;;;;19.20;9.80;;;;;;;-4.01;100.00;102516.25;5034172;28;20812;-77
2023/02/10 01:21:30;;;;;;;18.00;9.07;;;;;;;-3.93;100.00;102506.53;5028756;28;20469;-75
2023/02/10 01:23:57;;;;;;;18.00;8.83;;;;;;;-3.85;100.00;102512.13;5030666;28;20443;-76
2023/02/10 01:26:23;;;;;;;18.63;9.10;;;;;;;-3.76;100.00;102494.84;5026430;28;20950;-76
2023/02/10 01:28:49;;;;;;;15.33;9.13;;;;;;;-3.67;100.00;102500.53;5033411;28;20453;-76
2023/02/10 01:31:19;;;;;;;17.47;8.83;;;;;;;-3.54;100.00;102503.81;5035369;28;20972;-77
2023/02/10 01:33:47;;;;;;;16.57;7.77;;;;;;;-3.46;100.00;102500.09;5034258;28;20881;-76
2023/02/10 01:36:16;;;;;;;16.23;8.70;;;;;;;-3.37;100.00;102494.66;5034610;28;20551;-76
2023/02/10 01:38:43;;;;;;;14.57;8.60;;;;;;;-3.28;100.00;102503.75;5030266;28;20462;-74
2023/02/10 01:41:10;;;;;;;16.23;8.63;;;;;;;-3.21;100.00;102499.88;5032964;28;20695;-77
2023/02/10 01:43:59;;;;;;;12.97;7.53;;;;;;;-3.15;100.00;102497.72;5031335;28;20311;-77
2023/02/10 01:46:27;;;;;;;14.47;7.63;;;;;;;-3.09;100.00;102499.75;5029163;28;20224;-76
2023/02/10 01:48:56;;;;;;;19.63;8.13;;;;;;;-3.04;100.00;102495.81;5012522;28;20455;-75
2023/02/10 01:51:26;;;;;;;13.70;7.83;;;;;;;-3.00;100.00;102489.22;5041172;28;20200;-76
2023/02/10 01:53:53;;;;;;;13.93;6.97;;;;;;;-2.90;100.00;102497.50;5038518;28;20187;-76
2023/02/10 01:56:20;;;;;;;13.50;7.70;;;;;;;-2.88;100.00;102498.47;5030856;28;20935;-76
2023/02/10 01:58:46;;;;;;;11.73;6.93;;;;;;;-2.82;100.00;102515.81;5022670;28;20204;-76
2023/02/10 02:01:15;;;;;;;13.00;6.70;;;;;;;-2.79;100.00;102515.13;5031263;28;20196;-76
2023/02/10 02:03:41;;;;;;;12.27;7.07;;;;;;;-2.74;100.00;102519.69;5028285;28;20343;-76
2023/02/10 02:06:09;;;;;;;10.33;6.93;;;;;;;-2.70;100.00;102519.06;5029686;28;20243;-77
2023/02/10 02:08:37;;;;;;;14.50;7.20;;;;;;;-2.65;100.00;102521.03;5027268;28;20212;-77
2023/02/10 02:11:15;;;;;;;13.40;7.37;;;;;;;-2.63;100.00;102529.66;5029463;28;20759;-77
2023/02/10 02:14:01;;;;;;;12.67;7.30;;;;;;;-2.60;100.00;102523.06;5038898;28;20209;-76
2023/02/10 02:16:40;;;;;;;13.53;7.53;;;;;;;-2.57;100.00;102535.13;5034264;28;20212;-76
2023/02/10 02:19:25;;;;;;;14.13;7.27;;;;;;;-2.54;100.00;102537.84;5032951;28;20528;-77
2023/02/10 02:22:29;;;;;;;13.50;7.70;;;;;;;-2.55;100.00;102536.97;5026431;28;20206;-76
2023/02/10 02:25:13;;;;;;;12.80;7.47;;;;;;;-2.55;100.00;102539.53;5025032;28;20219;-77
2023/02/10 02:32:03;;;;;;;15.33;8.60;;;;;;;-2.55;100.00;102534.44;5025419;28;20599;-77
2023/02/10 02:34:38;;;;;;;16.03;7.73;;;;;;;-2.59;100.00;102521.38;5029747;28;20195;-76
2023/02/10 02:37:10;;;;;;;13.07;7.10;;;;;;;-2.63;100.00;102527.13;5029019;28;20218;-76
2023/02/10 02:39:37;;;;;;;16.33;8.27;;;;;;;-2.64;100.00;102527.88;5028275;28;20624;-75
2023/02/10 02:42:19;;;;;;;17.57;8.17;;;;;;;-2.65;100.00;102528.69;5033005;28;20616;-76
2023/02/10 02:44:48;;;;;;;13.43;7.30;;;;;;;-2.68;100.00;102529.38;5028537;28;20696;-75
2023/02/10 02:47:25;;;;;;;16.73;7.53;;;;;;;-2.69;100.00;102535.28;5031827;28;20203;-75
2023/02/10 02:53:29;;;;;;;12.60;7.33;;;;;;;-2.75;100.00;102533.25;5032865;28;20191;-77
2023/02/10 02:56:09;;;;;;;15.27;7.77;;;;;;;-2.75;100.00;102524.72;5029644;28;20222;-77
2023/02/10 02:58:45;;;;;;;14.87;8.13;;;;;;;-2.75;100.00;102525.59;5029135;28;20200;-77
2023/02/10 03:01:16;;;;;;;15.93;8.67;;;;;;;-2.77;100.00;102524.63;5027979;28;20301;-77
2023/02/10 03:03:44;;;;;;;15.70;8.20;;;;;;;-2.77;100.00;102531.41;5028792;28;20208;-76
2023/02/10 03:06:11;;;;;;;19.37;8.83;;;;;;;-2.76;100.00;102535.69;5028061;28;20227;-76
2023/02/10 03:08:40;;;;;;;16.40;7.77;;;;;;;-2.77;100.00;102528.84;5032792;28;20229;-76
2023/02/10 03:11:06;;;;;;;19.03;8.30;;;;;;;-2.75;100.00;102534.94;5039782;28;20237;-75
2023/02/10 03:13:33;;;;;;;15.80;8.90;;;;;;;-2.73;100.00;102531.66;5051103;28;20485;-77
2023/02/10 03:16:00;;;;;;;15.80;8.60;;;;;;;-2.72;100.00;102527.47;5048944;28;20230;-76
2023/02/10 03:18:27;;;;;;;18.40;9.10;;;;;;;-2.71;100.00;102524.09;5051500;28;20199;-75
2023/02/10 03:20:54;;;;;;;17.63;8.50;;;;;;;-2.70;100.00;102534.41;5049962;28;20584;-75
2023/02/10 03:23:21;;;;;;;16.13;8.70;;;;;;;-2.70;100.00;102531.84;5044957;28;20284;-76
2023/02/10 03:25:47;;;;;;;19.93;9.70;;;;;;;-2.68;100.00;102534.50;5046671;28;20219;-76
2023/02/10 03:28:14;;;;;;;18.30;8.67;;;;;;;-2.68;100.00;102539.59;5047717;28;20199;-77
2023/02/10 03:30:46;;;;;;;18.67;9.77;;;;;;;-2.67;100.00;102546.47;5047477;28;20203;-77
2023/02/10 03:33:12;;;;;;;19.20;9.07;;;;;;;-2.67;100.00;102541.38;5030729;28;20211;-76
2023/02/10 03:35:39;;;;;;;16.07;9.07;;;;;;;-2.67;100.00;102534.59;5048127;28;20215;-76
2023/02/10 03:38:07;;;;;;;15.77;9.17;;;;;;;-2.65;100.00;102537.22;5026257;28;20204;-76
2023/02/10 03:40:34;;;;;;;18.33;9.80;;;;;;;-2.65;100.00;102537.22;5042167;28;20559;-76
2023/02/10 03:43:00;;;;;;;14.30;8.90;;;;;;;-2.66;100.00;102532.91;5049940;28;20687;-76
2023/02/10 03:45:26;;;;;;;17.57;10.27;;;;;;;-2.68;100.00;102534.50;5049879;28;20223;-75
2023/02/10 03:47:53;;;;;;;20.07;9.40;;;;;;;-2.74;100.00;102539.25;5049045;28;20204;-77
2023/02/10 03:50:19;;;;;;;16.13;9.03;;;;;;;-2.82;100.00;102536.22;5052109;28;20470;-77
2023/02/10 03:52:45;;;;;;;17.57;9.97;;;;;;;-2.91;100.00;102546.78;5046516;28;20214;-74
2023/02/10 03:55:17;;;;;;;14.80;8.67;;;;;;;-2.99;100.00;102542.00;5049464;28;20222;-76
2023/02/10 03:57:43;;;;;;;16.00;9.00;;;;;;;-3.04;100.00;102541.75;5050344;28;20285;-77
2023/02/10 04:00:11;;;;;;;16.77;9.33;;;;;;;-3.11;100.00;102543.03;5035103;28;20204;-76
2023/02/10 04:02:40;;;;;;;18.83;9.13;;;;;;;-3.13;100.00;102538.63;5043362;28;20676;-75
2023/02/10 04:05:07;;;;;;;18.73;9.30;;;;;;;-3.21;100.00;102543.28;5046505;28;20223;-76
2023/02/10 04:07:34;;;;;;;19.17;9.97;;;;;;;-3.28;100.00;102548.78;5049790;28;20226;-77
2023/02/10 04:10:00;;;;;;;15.97;9.67;;;;;;;-3.31;100.00;102546.91;5046725;28;20756;-76
2023/02/10 04:12:31;;;;;;;20.63;9.97;;;;;;;-3.34;100.00;102553.50;5048920;28;20209;-75
2023/02/10 04:14:57;;;;;;;18.83;9.53;;;;;;;-3.37;100.00;102553.34;5029643;28;20235;-76
2023/02/10 04:17:23;;;;;;;17.40;9.70;;;;;;;-3.39;100.00;102560.91;5045238;28;20207;-75
2023/02/10 04:19:50;;;;;;;21.23;11.13;;;;;;;-3.42;100.00;102555.59;5027141;28;20604;-76
2023/02/10 04:22:16;;;;;;;18.93;9.93;;;;;;;-3.43;100.00;102556.38;5045667;28;20206;-76
2023/02/10 04:24:43;;;;;;;20.67;9.77;;;;;;;-3.47;100.00;102565.50;5051696;28;20399;-74
2023/02/10 04:27:09;;;;;;;24.27;10.60;;;;;;;-3.48;100.00;102565.44;5047753;28;20223;-76
2023/02/10 04:29:39;;;;;;;15.97;9.60;;;;;;;-3.47;100.00;102559.53;5050720;28;20575;-75
2023/02/10 04:32:06;;;;;;;16.00;9.70;;;;;;;-3.54;100.00;102555.69;5040429;28;20206;-76
2023/02/10 04:34:33;;;;;;;19.10;10.63;;;;;;;-3.59;100.00;102564.72;5047920;28;20196;-76
2023/02/10 04:36:59;;;;;;;16.50;9.40;;;;;;;-3.65;100.00;102567.78;5048985;28;20212;-75
2023/02/10 04:39:25;;;;;;;17.07;9.53;;;;;;;-3.70;100.00;102579.34;5045221;28;20461;-76
2023/02/10 04:41:52;;;;;;;19.83;10.17;;;;;;;-3.75;100.00;102572.22;5048073;28;20699;-76
2023/02/10 04:44:18;;;;;;;16.13;9.87;;;;;;;-3.82;100.00;102583.69;5046944;28;20664;-76
2023/02/10 04:46:47;;;;;;;22.63;10.27;;;;;;;-3.89;100.00;102586.63;5051402;28;20487;-75
2023/02/10 04:49:13;;;;;;;19.70;9.50;;;;;;;-3.96;100.00;102585.34;5045181;28;20257;-75
2023/02/10 04:51:40;;;;;;;16.57;10.10;;;;;;;-3.98;100.00;102586.03;5048324;28;20195;-76
2023/02/10 04:54:06;;;;;;;15.90;9.33;;;;;;;-4.01;100.00;102581.59;5049632;28;20214;-76
2023/02/10 04:56:33;;;;;;;17.87;10.10;;;;;;;-4.01;100.00;102576.50;5048662;28;20465;-76
2023/02/10 04:58:59;;;;;;;24.40;10.13;;;;;;;-3.93;100.00;102570.25;5049067;28;20477;-76
2023/02/10 05:01:25;;;;;;;18.00;10.53;;;;;;;-3.89;100.00;102573.88;5043949;28;20503;-76
2023/02/10 05:03:53;;;;;;;19.63;11.10;;;;;;;-3.82;100.00;102573.47;5047651;28;21010;-75
2023/02/10 05:06:19;;;;;;;17.47;10.03;;;;;;;-3.78;100.00;102583.13;5049822;28;20989;-76
2023/02/10 05:08:46;;;;;;;21.83;10.60;;;;;;;-3.72;100.00;102587.72;5047098;28;20617;-76
2023/02/10 05:11:15;;;;;;;18.27;10.00;;;;;;;-3.69;100.00;102577.72;5048676;28;20465;-75
2023/02/10 05:13:43;;;;;;;18.07;9.73;;;;;;;-3.66;100.00;102581.34;5048636;28;20215;-77
2023/02/10 05:16:12;;;;;;;20.83;10.00;;;;;;;-3.66;100.00;102578.78;5045559;28;20488;-75
2023/02/10 05:18:39;;;;;;;20.03;10.20;;;;;;;-3.67;100.00;102574.47;5052095;28;20606;-77
2023/02/10 05:21:08;;;;;;;15.93;9.73;;;;;;;-3.68;100.00;102576.91;5048522;28;20463;-76
2023/02/10 05:23:35;;;;;;;22.47;10.37;;;;;;;-3.72;100.00;102583.50;5049507;28;20276;-77
2023/02/10 05:26:01;;;;;;;19.20;10.87;;;;;;;-3.77;100.00;102587.41;5044306;28;20234;-75
2023/02/10 05:28:28;;;;;;;19.53;10.63;;;;;;;-3.81;100.00;102593.97;5046406;28;20510;-77
2023/02/10 05:30:54;;;;;;;19.47;10.90;;;;;;;-3.85;100.00;102592.03;5032424;28;20457;-76
2023/02/10 05:33:21;;;;;;;21.83;11.53;;;;;;;-3.92;100.00;102594.97;5054634;28;20489;-75
2023/02/10 05:35:47;;;;;;;20.40;11.00;;;;;;;-3.96;100.00;102593.00;5043988;28;20477;-76
2023/02/10 05:38:15;;;;;;;28.27;11.63;;;;;;;-4.02;100.00;102603.69;5029217;28;20472;-77
2023/02/10 05:40:42;;;;;;;24.90;10.83;;;;;;;-4.02;100.00;102597.69;5043249;28;20476;-75
2023/02/10 05:43:09;;;;;;;20.93;10.77;;;;;;;-4.07;100.00;102607.59;5050566;28;20831;-76
2023/02/10 05:45:36;;;;;;;19.37;9.93;;;;;;;-4.07;100.00;102601.63;5049205;28;20532;-75
2023/02/10 05:48:03;;;;;;;20.33;11.10;;;;;;;-4.10;100.00;102609.94;5050551;28;20467;-75
2023/02/10 05:50:30;;;;;;;20.40;10.67;;;;;;;-4.10;100.00;102604.84;5054841;28;20464;-76
2023/02/10 05:52:56;;;;;;;21.27;10.93;;;;;;;-4.16;100.00;102613.75;5049184;28;20519;-74
2023/02/10 05:55:24;;;;;;;21.40;9.43;;;;;;;-4.21;100.00;102616.88;5027775;28;21036;-76
2023/02/10 05:57:52;;;;;;;18.70;11.13;;;;;;;-4.23;100.00;102610.78;5051357;28;20463;-77
2023/02/10 06:00:19;;;;;;;21.67;11.40;;;;;;;-4.27;100.00;102606.28;5030281;28;20457;-76
2023/02/10 06:02:45;;;;;;;20.40;9.87;;;;;;;-4.28;100.00;102616.38;5044289;28;20705;-76
2023/02/10 06:05:11;;;;;;;19.27;10.13;;;;;;;-4.31;100.00;102617.06;5044441;28;21024;-76
2023/02/10 06:07:38;;;;;;;21.73;10.77;;;;;;;-4.28;100.00;102614.69;5051641;28;20754;-76
2023/02/10 06:10:05;;;;;;;25.77;11.43;;;;;;;-4.29;100.00;102617.16;5046305;28;20811;-75
2023/02/10 06:12:33;;;;;;;19.57;10.73;;;;;;;-4.31;100.00;102611.06;5044754;28;20464;-76
2023/02/10 06:14:59;;;;;;;22.50;11.30;;;;;;;-4.30;100.00;102608.63;5028724;28;20732;-76
2023/02/10 06:17:27;;;;;;;25.77;12.20;;;;;;;-4.34;100.00;102619.41;5049524;28;20542;-75
2023/02/10 06:19:54;;;;;;;25.13;12.30;;;;;;;-4.34;100.00;102627.06;5055683;28;20517;-75
2023/02/10 06:22:20;;;;;;;24.23;11.63;;;;;;;-4.29;100.00;102623.16;5051186;28;20469;-75
2023/02/10 06:24:46;;;;;;;19.93;11.07;;;;;;;-4.24;100.00;102624.34;5049834;28;21098;-76
2023/02/10 06:27:14;;;;;;;23.30;10.93;;;;;;;-4.26;100.00;102632.63;5047425;28;20489;-75
2023/02/10 06:29:41;;;;;;;23.90;12.03;;;;;;;-4.27;100.00;102641.94;5045166;28;20464;-75
2023/02/10 06:32:08;;;;;;;23.97;11.30;;;;;;;-4.27;100.00;102638.53;5051260;28;20464;-76
2023/02/10 06:34:34;;;;;;;22.17;12.40;;;;;;;-4.30;100.00;102643.41;5036982;28;21101;-76
2023/02/10 06:37:00;;;;;;;24.67;12.40;;;;;;;-4.26;100.00;102637.72;5066485;22;20581;-71
2023/02/10 06:39:27;;;;;;;25.70;12.67;;;;;;;-4.19;100.00;102630.63;5049830;28;20459;-72
2023/02/10 06:41:54;;;;;;;24.80;12.80;;;;;;;-4.18;100.00;102639.13;5047717;28;20899;-71
2023/02/10 06:44:20;;;;;;;24.03;13.83;;;;;;;-4.17;100.00;102635.78;5055298;28;20464;-71
2023/02/10 06:46:48;;;;;;;25.63;12.27;;;;;;;-4.19;100.00;102632.25;5047340;28;21223;-71
2023/02/10 06:49:14;;;;;;;21.43;11.37;;;;;;;-4.16;100.00;102635.03;5058537;28;20455;-71
2023/02/10 06:51:41;;;;;;;29.57;12.87;;;;;;;-4.10;100.00;102626.88;5059442;28;20448;-71
2023/02/10 06:54:07;;;;;;;26.07;13.07;;;;;;;-4.09;100.00;102631.22;5038594;28;20790;-71
2023/02/10 06:56:33;;;;;;;23.80;13.57;;;;;;;-4.07;100.00;102634.75;5054820;28;20971;-71
2023/02/10 06:59:00;;;;;;;26.03;12.73;;;;;;;-4.02;100.00;102639.34;5060679;28;20460;-71
2023/02/10 07:01:26;;;;;;;24.40;13.07;;;;;;;-4.05;100.00;102643.38;5062846;28;20857;-72
2023/02/10 07:03:54;;;;;;;28.83;15.27;;;;;;;-3.98;100.00;102632.78;5047626;28;20448;-71
2023/02/10 07:06:20;;;;;;;27.47;15.27;;;;;;;-3.96;100.00;102643.09;5052092;28;20572;-71
2023/02/10 07:08:47;;;;;;;36.53;16.80;;;;;;;-3.96;100.00;102643.97;5057991;28;20449;-71
2023/02/10 07:11:13;;;;;;;34.10;15.23;;;;;;;-3.92;100.00;102645.03;5056589;28;20945;-71
2023/02/10 07:13:40;;;;;;;27.13;13.40;;;;;;;-3.83;100.00;102658.41;5054047;28;20452;-73
2023/02/10 07:16:07;;;;;;;32.60;15.90;;;;;;;-3.74;100.00;102660.69;5049641;28;20475;-73
2023/02/10 07:18:33;;;;;;;32.83;15.50;;;;;;;-3.61;100.00;102658.13;5050882;28;20460;-73
2023/02/10 07:21:01;;;;;;;32.40;14.40;;;;;;;-3.48;100.00;102660.69;5059464;28;20540;-74
2023/02/10 07:23:27;;;;;;;48.63;24.70;;;;;;;-3.39;100.00;102660.38;5051760;28;20465;-73
2023/02/10 07:25:54;;;;;;;47.10;21.37;;;;;;;-3.26;100.00;102655.25;5052350;28;21010;-73
2023/02/10 07:28:20;;;;;;;56.60;23.97;;;;;;;-3.12;100.00;102660.34;5055565;28;20453;-73
2023/02/10 07:30:46;;;;;;;51.77;19.63;;;;;;;-2.97;100.00;102668.06;5056664;28;20514;-73
2023/02/10 07:33:13;;;;;;;43.80;19.60;;;;;;;-2.82;100.00;102674.09;5036021;28;20465;-73
2023/02/10 07:35:39;;;;;;;44.90;19.47;;;;;;;-2.70;100.00;102671.44;5056739;28;20720;-74
2023/02/10 07:38:07;;;;;;;43.30;20.07;;;;;;;-2.58;100.00;102672.16;5050223;28;20227;-73
2023/02/10 07:40:34;;;;;;;40.13;17.70;;;;;;;-2.48;100.00;102687.25;5054016;28;20582;-73
2023/02/10 07:43:00;;;;;;;35.80;17.50;;;;;;;-2.36;100.00;102691.34;5058917;28;20219;-72
2023/02/10 07:45:42;;;;;;;41.67;19.27;;;;;;;-2.25;100.00;102686.84;5056045;28;20222;-73
2023/02/10 07:48:09;;;;;;;44.87;19.00;;;;;;;-2.13;100.00;102690.13;5056167;28;20218;-71
2023/02/10 07:50:36;;;;;;;38.07;18.13;;;;;;;-2.04;100.00;102689.78;5036620;28;20231;-72
2023/02/10 07:53:03;;;;;;;43.03;19.53;;;;;;;-1.98;100.00;102687.63;5048525;28;20207;-71
2023/02/10 07:55:30;;;;;;;36.63;19.17;;;;;;;-1.94;100.00;102692.09;5056291;28;20233;-72
2023/02/10 07:57:57;;;;;;;41.37;18.47;;;;;;;-1.89;100.00;102680.47;5036225;28;20406;-71
2023/02/10 08:00:23;;;;;;;39.97;18.63;;;;;;;-1.82;100.00;102684.25;5054463;28;20194;-72
2023/02/10 08:02:50;;;;;;;39.83;16.97;;;;;;;-1.76;100.00;102677.84;5056808;28;20198;-72
2023/02/10 08:05:16;;;;;;;31.77;16.90;;;;;;;-1.69;100.00;102679.03;5056321;28;20195;-72
2023/02/10 08:07:43;;;;;;;34.60;17.43;;;;;;;-1.63;100.00;102673.41;5060139;28;20225;-72
2023/02/10 08:10:09;;;;;;;33.73;16.87;;;;;;;-1.59;100.00;102681.31;5054505;28;20683;-72
2023/02/10 08:12:37;;;;;;;42.60;17.13;;;;;;;-1.56;100.00;102678.94;5054438;28;20195;-71
2023/02/10 08:15:04;;;;;;;33.10;17.30;;;;;;;-1.56;100.00;102686.63;5050305;28;20198;-72
2023/02/10 08:17:30;;;;;;;32.87;16.53;;;;;;;-1.55;100.00;102688.41;5054078;28;20217;-72
2023/02/10 08:19:57;;;;;;;30.90;15.70;;;;;;;-1.50;100.00;102682.66;5042835;28;20196;-71
2023/02/10 08:22:23;;;;;;;29.80;15.53;;;;;;;-1.48;100.00;102692.16;5054426;28;20285;-72
2023/02/10 08:24:50;;;;;;;28.87;15.27;;;;;;;-1.45;100.00;102700.03;5054272;28;20541;-71
2023/02/10 08:27:17;;;;;;;33.53;16.70;;;;;;;-1.41;100.00;102708.75;5050662;28;20574;-72
2023/02/10 08:29:44;;;;;;;35.17;15.67;;;;;;;-1.38;100.00;102708.94;5049920;28;20214;-72
2023/02/10 08:32:12;;;;;;;28.13;14.87;;;;;;;-1.32;100.00;102714.38;5049189;28;20203;-71
2023/02/10 08:34:39;;;;;;;24.77;14.00;;;;;;;-1.25;100.00;102716.50;5053709;28;20540;-71
2023/02/10 08:37:05;;;;;;;33.27;15.17;;;;;;;-1.21;100.00;102721.00;5065437;28;20250;-70
2023/02/10 08:39:32;;;;;;;34.30;16.90;;;;;;;-1.16;100.00;102721.25;5081856;28;20258;-70
2023/02/10 08:41:58;;;;;;;33.60;15.93;;;;;;;-1.07;100.00;102728.53;5078571;28;20326;-70
2023/02/10 08:44:24;;;;;;;32.30;16.23;;;;;;;-1.03;100.00;102722.81;5078934;28;20254;-71
2023/02/10 08:46:52;;;;;;;30.50;15.83;;;;;;;-1.00;100.00;102723.84;5074307;28;20271;-71
2023/02/10 08:49:19;;;;;;;28.23;14.63;;;;;;;-0.91;100.00;102732.84;5071429;28;20199;-70
2023/02/10 08:51:45;;;;;;;31.80;15.00;;;;;;;-0.83;100.00;102727.31;5070483;28;20191;-70
2023/02/10 08:54:11;;;;;;;27.20;15.40;;;;;;;-0.74;100.00;102720.94;5077735;28;20190;-71
2023/02/10 08:56:38;;;;;;;29.93;14.63;;;;;;;-0.62;100.00;102722.47;5080634;28;20275;-70
2023/02/10 08:59:04;;;;;;;29.73;14.80;;;;;;;-0.53;100.00;102716.94;5084263;28;20286;-70
2023/02/10 09:01:31;;;;;;;28.87;15.53;;;;;;;-0.42;100.00;102714.97;5065296;28;20207;-71
2023/02/10 09:03:58;;;;;;;31.57;15.73;;;;;;;-0.31;100.00;102716.41;5052600;28;20244;-71
2023/02/10 09:06:27;;;;;;;32.57;15.40;;;;;;;-0.20;100.00;102722.06;5057445;28;20215;-72
2023/02/10 09:08:54;;;;;;;32.43;15.57;;;;;;;-0.09;100.00;102713.28;5060317;28;20199;-72
2023/02/10 09:11:23;;;;;;;31.10;15.23;;;;;;;-0.01;100.00;102711.09;5063863;28;20199;-72
2023/02/10 09:13:49;;;;;;;28.80;13.93;;;;;;;0.10;100.00;102711.63;5058421;28;20600;-72
2023/02/10 09:16:16;;;;;;;25.80;15.03;;;;;;;0.11;100.00;102719.41;5061845;28;20250;-72
2023/02/10 09:18:44;;;;;;;32.93;15.20;;;;;;;0.12;100.00;102723.75;5062541;28;20198;-71
2023/02/10 09:21:12;;;;;;;26.03;14.20;;;;;;;0.11;100.00;102709.13;5056796;28;20688;-73
2023/02/10 09:23:38;;;;;;;28.90;15.20;;;;;;;0.16;100.00;102717.94;5057750;28;20544;-72
2023/02/10 09:26:05;;;;;;;24.73;12.27;;;;;;;0.24;100.00;102717.44;5050166;28;20441;-72
2023/02/10 09:28:31;;;;;;;28.97;13.67;;;;;;;0.32;100.00;102717.03;5053367;28;20212;-72
2023/02/10 09:30:58;;;;;;;29.30;13.97;;;;;;;0.43;100.00;102720.09;5055015;28;20211;-71
2023/02/10 09:33:24;;;;;;;27.03;13.83;;;;;;;0.53;100.00;102712.06;5062685;28;20221;-72
2023/02/10 09:35:50;;;;;;;28.23;13.57;;;;;;;0.65;100.00;102711.78;5058685;28;20233;-72
2023/02/10 09:38:18;;;;;;;29.37;14.83;;;;;;;0.73;100.00;102712.13;5057259;28;20205;-72
2023/02/10 09:40:57;;;;;;;25.10;13.73;;;;;;;0.75;100.00;102713.06;5059090;28;20205;-72
2023/02/10 09:43:45;;;;;;;26.20;12.47;;;;;;;0.78;100.00;102714.94;5051711;28;20655;-72
2023/02/10 09:46:22;;;;;;;24.73;13.57;;;;;;;0.80;100.00;102714.19;5054642;28;20215;-72
2023/02/10 09:49:01;;;;;;;21.80;11.90;;;;;;;0.85;100.00;102711.84;5057799;28;20309;-72
2023/02/10 09:51:40;;;;;;;25.93;12.97;;;;;;;0.93;100.00;102713.06;5058141;28;20211;-72
2023/02/10 09:54:11;;;;;;;23.93;12.40;;;;;;;1.03;100.00;102719.53;5062085;28;20256;-72
2023/02/10 09:56:39;;;;;;;23.70;12.10;;;;;;;1.05;100.00;102723.03;5055738;28;20215;-72
2023/02/10 09:59:06;;;;;;;21.63;12.37;;;;;;;1.08;100.00;102721.47;5061759;28;20196;-71
2023/02/10 10:01:38;;;;;;;25.37;11.63;;;;;;;1.08;100.00;102726.63;5061381;28;20971;-72
2023/02/10 10:04:10;;;;;;;23.77;12.77;;;;;;;1.16;100.00;102723.53;5056173;28;20694;-72
2023/02/10 10:06:39;;;;;;;22.97;12.00;;;;;;;1.27;100.00;102725.78;5054554;28;20211;-72
2023/02/10 10:09:23;;;;;;;22.50;11.83;;;;;;;1.38;100.00;102722.84;5058830;28;20226;-72
2023/02/10 10:11:51;;;;;;;21.73;12.17;;;;;;;1.50;100.00;102731.09;5057160;28;20199;-72
2023/02/10 10:14:20;;;;;;;19.90;10.70;;;;;;;1.59;100.00;102726.34;5058017;28;20235;-72
2023/02/10 10:17:05;;;;;;;23.40;11.27;;;;;;;1.77;100.00;102736.56;5037323;28;20296;-72
2023/02/10 10:19:45;;;;;;;21.30;10.97;;;;;;;1.96;100.00;102734.81;5054491;28;20214;-73
2023/02/10 10:22:30;;;;;;;21.70;11.27;;;;;;;2.14;100.00;102735.56;5056268;28;20199;-72
2023/02/10 10:25:34;;;;;;;17.63;9.63;;;;;;;2.30;100.00;102746.53;5051271;28;20199;-72
2023/02/10 10:28:13;;;;;;;23.50;9.77;;;;;;;2.31;100.00;102758.59;5048206;28;20230;-72
2023/02/10 10:30:46;;;;;;;19.47;9.70;;;;;;;2.32;100.00;102761.19;5034090;28;20203;-72
2023/02/10 10:33:22;;;;;;;21.83;10.50;;;;;;;2.34;100.00;102761.28;5057339;28;20198;-72
2023/02/10 10:35:49;;;;;;;19.20;9.83;;;;;;;2.38;100.00;102763.19;5052457;28;20223;-72
2023/02/10 10:38:19;;;;;;;20.67;10.00;;;;;;;2.39;100.00;102768.41;5050348;28;20201;-73
2023/02/10 10:40:47;;;;;;;17.60;9.53;;;;;;;2.49;100.00;102764.50;5054027;28;20234;-72
2023/02/10 10:43:21;;;;;;;18.30;8.90;;;;;;;2.53;100.00;102768.94;5038895;28;20199;-71
2023/02/10 10:45:51;;;;;;;22.27;10.67;;;;;;;2.59;100.00;102758.03;5053689;28;20580;-73
2023/02/10 10:48:24;;;;;;;17.50;9.37;;;;;;;2.66;100.00;102760.03;5056197;28;20225;-72
2023/02/10 10:50:50;;;;;;;17.80;10.03;;;;;;;2.69;100.00;102755.03;5043084;28;20905;-72
2023/02/10 10:53:22;;;;;;;19.57;10.50;;;;;;;2.70;100.00;102751.59;5060307;28;20265;-72
2023/02/10 10:55:51;;;;;;;23.87;10.13;;;;;;;2.71;100.00;102748.22;5054465;28;20221;-72
2023/02/10 10:58:26;;;;;;;23.17;10.37;;;;;;;2.78;100.00;102757.06;5051735;28;20206;-72
2023/02/10 11:00:54;;;;;;;17.20;9.93;;;;;;;2.74;100.00;102758.63;5053060;28;20194;-72
2023/02/10 11:03:21;;;;;;;15.73;9.23;;;;;;;2.76;100.00;102762.19;5058900;28;20795;-71
2023/02/10 11:05:59;;;;;;;22.60;10.27;;;;;;;2.74;100.00;102775.78;5056059;28;20691;-72
2023/02/10 11:08:30;;;;;;;19.23;8.87;;;;;;;2.69;100.00;102767.00;5055994;28;20536;-72
2023/02/10 11:11:00;;;;;;;17.87;9.07;;;;;;;2.63;100.00;102772.78;5058433;28;20216;-72
2023/02/10 11:13:32;;;;;;;20.90;9.80;;;;;;;2.63;100.00;102767.63;5054736;28;20205;-71
2023/02/10 11:16:02;;;;;;;21.67;10.30;;;;;;;2.71;100.00;102752.47;5049773;28;20292;-72
2023/02/10 11:18:29;;;;;;;17.03;9.57;;;;;;;2.76;100.00;102749.28;5061431;28;20350;-72
2023/02/10 11:20:58;;;;;;;21.73;9.77;;;;;;;2.75;100.00;102747.53;5058521;28;20739;-72